Festivo — EAEQ — position and weather

sailwx.info

Track history (hours):
 
Tides and Currents Weather Stations Pressure Air Temp Water Temp Dewpoint Dewpoint Depression Visibility Wind Speed Wind Dir Waves Ship Positions

Festivo

Last reported at 2014-Aug-22 10:21 UTC. Time now 2014-Aug-22 15:41 UTC.
Position N 35°57' W 005°15'.

Length 136 m; draft 3.5 m.

Type: Cargo ship. MMSI: 225410000.

Date/timePositionNaut miles runAvg speedWind from/ knotsBaromVisibWave heightAir tempDewpointWater temp
2014-Aug-22 10:21N 35°57' W 005°15'5 5.7
2014-Aug-22 09:33N 35°54' W 005°19'0 0.0
2014-Aug-22 08:33N 35°54' W 005°19'0 0.0
2014-Aug-22 07:33N 35°54' W 005°19'0 0.0
2014-Aug-22 06:33N 35°54' W 005°19'3 2.8
2014-Aug-22 05:34N 35°56' W 005°17'  
2014-Aug-19 09:17N 35°58' W 005°15'5 7.3
2014-Aug-19 08:33N 35°54' W 005°19'0 0.0
2014-Aug-19 07:33N 35°54' W 005°19'0 0.0
2014-Aug-19 06:33N 35°54' W 005°19'0 0.0
2014-Aug-19 05:33N 35°54' W 005°19'0 0.5
2014-Aug-19 04:33N 35°54' W 005°19'  
2014-Aug-14 12:21N 35°58' W 005°16'4 5.4
2014-Aug-14 11:33N 35°54' W 005°19'0 0.0
2014-Aug-14 10:33N 35°54' W 005°19'0 0.0
2014-Aug-14 09:33N 35°54' W 005°19'0 0.0
2014-Aug-14 08:33N 35°54' W 005°19'  
Track history (hours):
 
Tides and Currents Weather Stations Pressure Air Temp Water Temp Dewpoint Dewpoint Depression Visibility Wind Speed Wind Dir Waves Ship Positions

Festivo

Last reported at 2014-Aug-22 10:21 UTC. Time now 2014-Aug-22 15:41 UTC.
Position N 35°57' W 005°15'.

Length 136 m; draft 3.5 m.

Type: Cargo ship. MMSI: 225410000.

Date/timePositionNaut miles runAvg speedWind from/ knotsBaromVisibWave heightAir tempDewpointWater temp
2014-Aug-22 10:21N 35°57' W 005°15'5 5.7
2014-Aug-22 09:33N 35°54' W 005°19'0 0.0
2014-Aug-22 08:33N 35°54' W 005°19'0 0.0
2014-Aug-22 07:33N 35°54' W 005°19'0 0.0
2014-Aug-22 06:33N 35°54' W 005°19'3 2.8
2014-Aug-22 05:34N 35°56' W 005°17'  
2014-Aug-19 09:17N 35°58' W 005°15'5 7.3
2014-Aug-19 08:33N 35°54' W 005°19'0 0.0
2014-Aug-19 07:33N 35°54' W 005°19'0 0.0
2014-Aug-19 06:33N 35°54' W 005°19'0 0.0
2014-Aug-19 05:33N 35°54' W 005°19'0 0.5
2014-Aug-19 04:33N 35°54' W 005°19'  
2014-Aug-14 12:21N 35°58' W 005°16'4 5.4
2014-Aug-14 11:33N 35°54' W 005°19'0 0.0
2014-Aug-14 10:33N 35°54' W 005°19'0 0.0
2014-Aug-14 09:33N 35°54' W 005°19'0 0.0
2014-Aug-14 08:33N 35°54' W 005°19'  

Dump ship's entire track history